sensor_id;sensor_type;location;lat;lon;timestamp;P1;durP1;ratioP1;P2;durP2;ratioP2
3712;SDS011;1872;51.406;6.856;2023-02-15T00:00:06;27.40;;;17.70;;
3712;SDS011;1872;51.406;6.856;2023-02-15T00:02:38;30.30;;;19.40;;
3712;SDS011;1872;51.406;6.856;2023-02-15T00:05:07;28.67;;;18.27;;
3712;SDS011;1872;51.406;6.856;2023-02-15T00:07:33;32.47;;;19.00;;
3712;SDS011;1872;51.406;6.856;2023-02-15T00:09:59;29.33;;;18.10;;
3712;SDS011;1872;51.406;6.856;2023-02-15T00:12:27;28.37;;;17.93;;
3712;SDS011;1872;51.406;6.856;2023-02-15T00:14:53;32.57;;;20.47;;
3712;SDS011;1872;51.406;6.856;2023-02-15T00:17:21;28.33;;;18.37;;
3712;SDS011;1872;51.406;6.856;2023-02-15T00:19:47;32.63;;;19.30;;
3712;SDS011;1872;51.406;6.856;2023-02-15T00:22:15;27.43;;;17.47;;
3712;SDS011;1872;51.406;6.856;2023-02-15T00:24:41;31.80;;;18.57;;
3712;SDS011;1872;51.406;6.856;2023-02-15T00:27:14;35.17;;;19.70;;
3712;SDS011;1872;51.406;6.856;2023-02-15T00:29:42;33.10;;;19.33;;
3712;SDS011;1872;51.406;6.856;2023-02-15T00:32:07;38.07;;;20.93;;
3712;SDS011;1872;51.406;6.856;2023-02-15T00:34:33;25.17;;;17.73;;
3712;SDS011;1872;51.406;6.856;2023-02-15T00:37:01;30.50;;;20.13;;
3712;SDS011;1872;51.406;6.856;2023-02-15T00:39:27;33.63;;;20.13;;
3712;SDS011;1872;51.406;6.856;2023-02-15T00:41:54;30.37;;;20.37;;
3712;SDS011;1872;51.406;6.856;2023-02-15T00:44:19;33.87;;;18.53;;
3712;SDS011;1872;51.406;6.856;2023-02-15T00:46:45;34.73;;;21.77;;
3712;SDS011;1872;51.406;6.856;2023-02-15T00:49:10;35.53;;;21.13;;
3712;SDS011;1872;51.406;6.856;2023-02-15T00:51:36;33.10;;;20.10;;
3712;SDS011;1872;51.406;6.856;2023-02-15T00:54:02;31.20;;;19.33;;
3712;SDS011;1872;51.406;6.856;2023-02-15T00:56:30;31.90;;;20.00;;
3712;SDS011;1872;51.406;6.856;2023-02-15T00:58:56;33.23;;;18.40;;
3712;SDS011;1872;51.406;6.856;2023-02-15T01:01:22;33.00;;;20.00;;
3712;SDS011;1872;51.406;6.856;2023-02-15T01:03:50;30.90;;;20.17;;
3712;SDS011;1872;51.406;6.856;2023-02-15T01:06:17;30.63;;;19.77;;
3712;SDS011;1872;51.406;6.856;2023-02-15T01:08:43;32.47;;;18.93;;
3712;SDS011;1872;51.406;6.856;2023-02-15T01:11:11;34.20;;;20.20;;
3712;SDS011;1872;51.406;6.856;2023-02-15T01:13:39;33.50;;;19.20;;
3712;SDS011;1872;51.406;6.856;2023-02-15T01:16:07;33.43;;;19.40;;
3712;SDS011;1872;51.406;6.856;2023-02-15T01:18:35;30.63;;;19.80;;
3712;SDS011;1872;51.406;6.856;2023-02-15T01:21:08;30.70;;;19.40;;
3712;SDS011;1872;51.406;6.856;2023-02-15T01:23:35;29.23;;;18.23;;
3712;SDS011;1872;51.406;6.856;2023-02-15T01:26:03;33.27;;;19.50;;
3712;SDS011;1872;51.406;6.856;2023-02-15T01:28:29;29.77;;;19.87;;
3712;SDS011;1872;51.406;6.856;2023-02-15T01:30:55;40.30;;;20.90;;
3712;SDS011;1872;51.406;6.856;2023-02-15T01:33:21;31.77;;;20.10;;
3712;SDS011;1872;51.406;6.856;2023-02-15T01:35:55;31.47;;;19.40;;
3712;SDS011;1872;51.406;6.856;2023-02-15T01:38:23;28.40;;;20.13;;
3712;SDS011;1872;51.406;6.856;2023-02-15T01:40:53;35.03;;;20.60;;
3712;SDS011;1872;51.406;6.856;2023-02-15T01:43:42;30.90;;;19.77;;
3712;SDS011;1872;51.406;6.856;2023-02-15T01:46:14;35.57;;;20.90;;
3712;SDS011;1872;51.406;6.856;2023-02-15T01:48:44;35.27;;;21.70;;
3712;SDS011;1872;51.406;6.856;2023-02-15T01:51:16;29.80;;;20.00;;
3712;SDS011;1872;51.406;6.856;2023-02-15T01:53:47;35.37;;;20.40;;
3712;SDS011;1872;51.406;6.856;2023-02-15T01:56:21;35.40;;;20.87;;
3712;SDS011;1872;51.406;6.856;2023-02-15T01:58:51;32.27;;;20.57;;
3712;SDS011;1872;51.406;6.856;2023-02-15T02:01:20;33.03;;;20.43;;
3712;SDS011;1872;51.406;6.856;2023-02-15T02:06:34;29.40;;;19.43;;
3712;SDS011;1872;51.406;6.856;2023-02-15T02:09:05;33.30;;;20.10;;
3712;SDS011;1872;51.406;6.856;2023-02-15T02:11:31;36.40;;;21.77;;
3712;SDS011;1872;51.406;6.856;2023-02-15T02:13:57;34.57;;;19.60;;
3712;SDS011;1872;51.406;6.856;2023-02-15T02:34:07;35.13;;;21.00;;
3712;SDS011;1872;51.406;6.856;2023-02-15T02:42:59;32.13;;;20.57;;
3712;SDS011;1872;51.406;6.856;2023-02-15T02:45:16;32.33;;;18.70;;
3712;SDS011;1872;51.406;6.856;2023-02-15T02:47:53;33.60;;;22.30;;
3712;SDS011;1872;51.406;6.856;2023-02-15T02:50:22;37.27;;;21.47;;
3712;SDS011;1872;51.406;6.856;2023-02-15T02:52:52;37.33;;;21.13;;
3712;SDS011;1872;51.406;6.856;2023-02-15T03:00:53;34.53;;;21.20;;
3712;SDS011;1872;51.406;6.856;2023-02-15T03:03:29;39.23;;;22.37;;
3712;SDS011;1872;51.406;6.856;2023-02-15T03:06:14;37.73;;;22.23;;
3712;SDS011;1872;51.406;6.856;2023-02-15T03:08:50;35.80;;;21.07;;
3712;SDS011;1872;51.406;6.856;2023-02-15T03:11:20;32.80;;;20.57;;
3712;SDS011;1872;51.406;6.856;2023-02-15T03:13:47;38.70;;;21.10;;
3712;SDS011;1872;51.406;6.856;2023-02-15T03:16:16;37.70;;;21.17;;
3712;SDS011;1872;51.406;6.856;2023-02-15T03:18:52;36.67;;;21.40;;
3712;SDS011;1872;51.406;6.856;2023-02-15T03:21:30;37.93;;;21.53;;
3712;SDS011;1872;51.406;6.856;2023-02-15T03:24:01;35.60;;;22.57;;
3712;SDS011;1872;51.406;6.856;2023-02-15T03:26:37;38.03;;;21.70;;
3712;SDS011;1872;51.406;6.856;2023-02-15T03:29:05;37.93;;;21.23;;
3712;SDS011;1872;51.406;6.856;2023-02-15T03:31:33;39.23;;;22.83;;
3712;SDS011;1872;51.406;6.856;2023-02-15T03:34:06;32.00;;;20.53;;
3712;SDS011;1872;51.406;6.856;2023-02-15T03:36:42;38.63;;;22.50;;
3712;SDS011;1872;51.406;6.856;2023-02-15T03:42:45;35.60;;;21.83;;
3712;SDS011;1872;51.406;6.856;2023-02-15T03:45:01;36.73;;;22.83;;
3712;SDS011;1872;51.406;6.856;2023-02-15T03:47:37;45.30;;;23.40;;
3712;SDS011;1872;51.406;6.856;2023-02-15T03:50:16;39.40;;;22.10;;
3712;SDS011;1872;51.406;6.856;2023-02-15T03:53:08;34.90;;;22.00;;
3712;SDS011;1872;51.406;6.856;2023-02-15T03:55:36;36.07;;;22.33;;
3712;SDS011;1872;51.406;6.856;2023-02-15T03:58:02;32.73;;;21.00;;
3712;SDS011;1872;51.406;6.856;2023-02-15T04:04:33;35.17;;;20.27;;
3712;SDS011;1872;51.406;6.856;2023-02-15T04:06:59;29.97;;;19.03;;
3712;SDS011;1872;51.406;6.856;2023-02-15T04:09:28;37.90;;;22.90;;
3712;SDS011;1872;51.406;6.856;2023-02-15T04:12:12;32.17;;;20.60;;
3712;SDS011;1872;51.406;6.856;2023-02-15T04:14:40;34.30;;;21.73;;
3712;SDS011;1872;51.406;6.856;2023-02-15T04:17:24;39.53;;;22.17;;
3712;SDS011;1872;51.406;6.856;2023-02-15T04:19:50;36.70;;;22.70;;
3712;SDS011;1872;51.406;6.856;2023-02-15T04:22:34;36.20;;;21.10;;
3712;SDS011;1872;51.406;6.856;2023-02-15T04:25:26;32.27;;;19.67;;
3712;SDS011;1872;51.406;6.856;2023-02-15T04:27:52;38.67;;;21.40;;
3712;SDS011;1872;51.406;6.856;2023-02-15T04:30:20;36.03;;;23.03;;
3712;SDS011;1872;51.406;6.856;2023-02-15T04:32:49;35.30;;;22.40;;
3712;SDS011;1872;51.406;6.856;2023-02-15T04:35:19;34.60;;;22.27;;
3712;SDS011;1872;51.406;6.856;2023-02-15T04:37:45;33.70;;;22.80;;
3712;SDS011;1872;51.406;6.856;2023-02-15T04:40:12;38.60;;;23.33;;
3712;SDS011;1872;51.406;6.856;2023-02-15T04:42:38;31.97;;;20.60;;
3712;SDS011;1872;51.406;6.856;2023-02-15T04:45:09;33.67;;;21.07;;
3712;SDS011;1872;51.406;6.856;2023-02-15T04:47:34;35.23;;;21.87;;
3712;SDS011;1872;51.406;6.856;2023-02-15T04:50:01;39.10;;;22.80;;
3712;SDS011;1872;51.406;6.856;2023-02-15T04:52:27;38.00;;;22.43;;
3712;SDS011;1872;51.406;6.856;2023-02-15T04:54:53;38.50;;;21.73;;
3712;SDS011;1872;51.406;6.856;2023-02-15T04:57:19;43.30;;;23.07;;
3712;SDS011;1872;51.406;6.856;2023-02-15T04:59:44;40.10;;;22.10;;
3712;SDS011;1872;51.406;6.856;2023-02-15T05:02:10;36.87;;;23.13;;
3712;SDS011;1872;51.406;6.856;2023-02-15T05:04:37;38.27;;;23.80;;
3712;SDS011;1872;51.406;6.856;2023-02-15T05:07:04;39.10;;;24.10;;
3712;SDS011;1872;51.406;6.856;2023-02-15T05:09:31;39.67;;;23.30;;
3712;SDS011;1872;51.406;6.856;2023-02-15T05:11:57;37.67;;;22.83;;
3712;SDS011;1872;51.406;6.856;2023-02-15T05:14:24;37.20;;;22.20;;
3712;SDS011;1872;51.406;6.856;2023-02-15T05:16:52;38.07;;;23.33;;
3712;SDS011;1872;51.406;6.856;2023-02-15T05:19:21;36.20;;;21.73;;
3712;SDS011;1872;51.406;6.856;2023-02-15T05:21:49;43.27;;;24.10;;
3712;SDS011;1872;51.406;6.856;2023-02-15T05:24:15;40.57;;;22.63;;
3712;SDS011;1872;51.406;6.856;2023-02-15T05:27:01;36.27;;;21.50;;
3712;SDS011;1872;51.406;6.856;2023-02-15T05:29:46;39.30;;;22.50;;
3712;SDS011;1872;51.406;6.856;2023-02-15T05:32:14;33.97;;;21.60;;
3712;SDS011;1872;51.406;6.856;2023-02-15T05:34:42;36.67;;;22.53;;
3712;SDS011;1872;51.406;6.856;2023-02-15T05:37:10;41.53;;;22.53;;
3712;SDS011;1872;51.406;6.856;2023-02-15T05:39:36;40.27;;;22.13;;
3712;SDS011;1872;51.406;6.856;2023-02-15T05:42:04;33.07;;;20.80;;
3712;SDS011;1872;51.406;6.856;2023-02-15T05:44:38;43.20;;;22.80;;
3712;SDS011;1872;51.406;6.856;2023-02-15T05:47:03;37.57;;;22.17;;
3712;SDS011;1872;51.406;6.856;2023-02-15T05:49:36;36.67;;;23.03;;
3712;SDS011;1872;51.406;6.856;2023-02-15T05:52:03;34.47;;;21.23;;
3712;SDS011;1872;51.406;6.856;2023-02-15T05:54:29;35.73;;;21.90;;
3712;SDS011;1872;51.406;6.856;2023-02-15T05:56:55;36.10;;;21.97;;
3712;SDS011;1872;51.406;6.856;2023-02-15T05:59:22;41.30;;;23.80;;
3712;SDS011;1872;51.406;6.856;2023-02-15T06:01:48;37.70;;;22.13;;
3712;SDS011;1872;51.406;6.856;2023-02-15T06:04:14;34.40;;;21.10;;
3712;SDS011;1872;51.406;6.856;2023-02-15T06:06:40;37.93;;;22.50;;
3712;SDS011;1872;51.406;6.856;2023-02-15T06:09:05;39.67;;;22.80;;
3712;SDS011;1872;51.406;6.856;2023-02-15T06:11:31;40.33;;;21.67;;
3712;SDS011;1872;51.406;6.856;2023-02-15T06:13:57;40.67;;;24.43;;
3712;SDS011;1872;51.406;6.856;2023-02-15T06:16:25;42.40;;;21.83;;
3712;SDS011;1872;51.406;6.856;2023-02-15T06:18:53;34.93;;;21.23;;
3712;SDS011;1872;51.406;6.856;2023-02-15T06:21:18;37.50;;;22.70;;
3712;SDS011;1872;51.406;6.856;2023-02-15T06:23:46;38.23;;;22.47;;
3712;SDS011;1872;51.406;6.856;2023-02-15T06:26:14;33.60;;;21.50;;
3712;SDS011;1872;51.406;6.856;2023-02-15T06:28:41;42.10;;;25.13;;
3712;SDS011;1872;51.406;6.856;2023-02-15T06:31:09;35.30;;;21.30;;
3712;SDS011;1872;51.406;6.856;2023-02-15T06:33:43;37.80;;;23.60;;
3712;SDS011;1872;51.406;6.856;2023-02-15T06:36:11;38.50;;;22.20;;
3712;SDS011;1872;51.406;6.856;2023-02-15T06:38:37;40.43;;;22.57;;
3712;SDS011;1872;51.406;6.856;2023-02-15T06:41:05;39.10;;;22.27;;
3712;SDS011;1872;51.406;6.856;2023-02-15T06:43:33;41.00;;;22.70;;
3712;SDS011;1872;51.406;6.856;2023-02-15T06:46:02;33.30;;;20.70;;
3712;SDS011;1872;51.406;6.856;2023-02-15T06:48:27;35.73;;;20.50;;
3712;SDS011;1872;51.406;6.856;2023-02-15T06:50:53;34.83;;;21.37;;
3712;SDS011;1872;51.406;6.856;2023-02-15T06:53:19;37.77;;;21.30;;
3712;SDS011;1872;51.406;6.856;2023-02-15T06:55:44;38.67;;;20.93;;
3712;SDS011;1872;51.406;6.856;2023-02-15T06:58:10;33.73;;;20.87;;
3712;SDS011;1872;51.406;6.856;2023-02-15T07:00:36;39.17;;;21.37;;
3712;SDS011;1872;51.406;6.856;2023-02-15T07:03:03;33.07;;;21.57;;
3712;SDS011;1872;51.406;6.856;2023-02-15T07:05:32;37.37;;;20.90;;
3712;SDS011;1872;51.406;6.856;2023-02-15T07:07:59;33.30;;;20.60;;
3712;SDS011;1872;51.406;6.856;2023-02-15T07:10:27;37.93;;;23.03;;
3712;SDS011;1872;51.406;6.856;2023-02-15T07:12:53;35.43;;;20.80;;
3712;SDS011;1872;51.406;6.856;2023-02-15T07:15:19;33.17;;;21.27;;
3712;SDS011;1872;51.406;6.856;2023-02-15T07:17:46;35.50;;;21.27;;
3712;SDS011;1872;51.406;6.856;2023-02-15T07:20:16;32.77;;;20.03;;
3712;SDS011;1872;51.406;6.856;2023-02-15T07:22:43;34.00;;;20.87;;
3712;SDS011;1872;51.406;6.856;2023-02-15T07:25:11;34.17;;;21.27;;
3712;SDS011;1872;51.406;6.856;2023-02-15T07:27:38;42.40;;;23.60;;
3712;SDS011;1872;51.406;6.856;2023-02-15T07:30:04;38.43;;;22.47;;
3712;SDS011;1872;51.406;6.856;2023-02-15T07:32:32;34.73;;;21.93;;
3712;SDS011;1872;51.406;6.856;2023-02-15T07:34:59;38.37;;;22.10;;
3712;SDS011;1872;51.406;6.856;2023-02-15T07:37:26;34.27;;;22.47;;
3712;SDS011;1872;51.406;6.856;2023-02-15T07:39:52;34.33;;;21.07;;
3712;SDS011;1872;51.406;6.856;2023-02-15T07:42:18;33.67;;;20.40;;
3712;SDS011;1872;51.406;6.856;2023-02-15T07:44:45;39.53;;;21.40;;
3712;SDS011;1872;51.406;6.856;2023-02-15T07:47:10;33.27;;;20.57;;
3712;SDS011;1872;51.406;6.856;2023-02-15T07:49:37;34.57;;;20.63;;
3712;SDS011;1872;51.406;6.856;2023-02-15T07:52:03;38.90;;;21.07;;
3712;SDS011;1872;51.406;6.856;2023-02-15T07:54:29;35.57;;;21.53;;
3712;SDS011;1872;51.406;6.856;2023-02-15T07:56:55;31.47;;;19.63;;
3712;SDS011;1872;51.406;6.856;2023-02-15T07:59:21;34.47;;;22.70;;
3712;SDS011;1872;51.406;6.856;2023-02-15T08:01:49;31.48;;;22.40;;
3712;SDS011;1872;51.406;6.856;2023-02-15T08:04:19;31.03;;;19.57;;
3712;SDS011;1872;51.406;6.856;2023-02-15T08:06:44;37.03;;;21.27;;
3712;SDS011;1872;51.406;6.856;2023-02-15T08:09:11;29.73;;;18.93;;
3712;SDS011;1872;51.406;6.856;2023-02-15T08:11:37;29.77;;;18.53;;
3712;SDS011;1872;51.406;6.856;2023-02-15T08:14:09;30.53;;;20.50;;
3712;SDS011;1872;51.406;6.856;2023-02-15T08:21:55;32.97;;;18.77;;
3712;SDS011;1872;51.406;6.856;2023-02-15T08:24:26;30.27;;;18.60;;
3712;SDS011;1872;51.406;6.856;2023-02-15T08:26:54;25.80;;;17.87;;
3712;SDS011;1872;51.406;6.856;2023-02-15T08:29:23;32.20;;;19.40;;
3712;SDS011;1872;51.406;6.856;2023-02-15T08:31:55;34.03;;;19.53;;
3712;SDS011;1872;51.406;6.856;2023-02-15T08:34:24;32.40;;;19.80;;
3712;SDS011;1872;51.406;6.856;2023-02-15T08:36:51;29.80;;;18.50;;
3712;SDS011;1872;51.406;6.856;2023-02-15T08:39:16;30.80;;;18.20;;
3712;SDS011;1872;51.406;6.856;2023-02-15T08:41:43;28.40;;;17.47;;
3712;SDS011;1872;51.406;6.856;2023-02-15T08:44:10;28.97;;;18.77;;
3712;SDS011;1872;51.406;6.856;2023-02-15T08:46:37;28.80;;;18.07;;
3712;SDS011;1872;51.406;6.856;2023-02-15T08:49:09;34.30;;;18.60;;
3712;SDS011;1872;51.406;6.856;2023-02-15T08:51:40;27.87;;;17.53;;
3712;SDS011;1872;51.406;6.856;2023-02-15T08:54:08;29.90;;;17.60;;
3712;SDS011;1872;51.406;6.856;2023-02-15T08:56:37;23.00;;;16.50;;
3712;SDS011;1872;51.406;6.856;2023-02-15T08:59:06;28.67;;;15.70;;
3712;SDS011;1872;51.406;6.856;2023-02-15T09:01:36;25.53;;;17.97;;
3712;SDS011;1872;51.406;6.856;2023-02-15T09:04:03;25.37;;;16.00;;
3712;SDS011;1872;51.406;6.856;2023-02-15T09:06:33;26.00;;;16.33;;
3712;SDS011;1872;51.406;6.856;2023-02-15T09:09:01;26.40;;;17.40;;
3712;SDS011;1872;51.406;6.856;2023-02-15T09:11:30;22.13;;;15.80;;
3712;SDS011;1872;51.406;6.856;2023-02-15T09:13:59;22.70;;;14.60;;
3712;SDS011;1872;51.406;6.856;2023-02-15T09:16:29;23.63;;;16.40;;
3712;SDS011;1872;51.406;6.856;2023-02-15T09:18:56;28.60;;;16.80;;
3712;SDS011;1872;51.406;6.856;2023-02-15T09:21:29;23.03;;;16.53;;
3712;SDS011;1872;51.406;6.856;2023-02-15T09:23:57;23.97;;;15.83;;
3712;SDS011;1872;51.406;6.856;2023-02-15T09:26:25;25.10;;;16.10;;
3712;SDS011;1872;51.406;6.856;2023-02-15T09:28:52;25.23;;;16.10;;
3712;SDS011;1872;51.406;6.856;2023-02-15T09:31:21;26.13;;;17.53;;
3712;SDS011;1872;51.406;6.856;2023-02-15T09:33:49;24.17;;;15.90;;
3712;SDS011;1872;51.406;6.856;2023-02-15T09:38:52;24.47;;;16.83;;
3712;SDS011;1872;51.406;6.856;2023-02-15T09:49:36;29.07;;;16.57;;
3712;SDS011;1872;51.406;6.856;2023-02-15T09:55:06;23.93;;;15.77;;
3712;SDS011;1872;51.406;6.856;2023-02-15T10:00:35;20.27;;;13.13;;
3712;SDS011;1872;51.406;6.856;2023-02-15T10:03:13;22.87;;;14.50;;
3712;SDS011;1872;51.406;6.856;2023-02-15T10:05:48;20.40;;;14.03;;
3712;SDS011;1872;51.406;6.856;2023-02-15T10:22:42;22.07;;;15.20;;
3712;SDS011;1872;51.406;6.856;2023-02-15T10:27:49;24.77;;;15.80;;
3712;SDS011;1872;51.406;6.856;2023-02-15T10:30:19;22.07;;;14.50;;
3712;SDS011;1872;51.406;6.856;2023-02-15T10:32:58;20.23;;;14.17;;
3712;SDS011;1872;51.406;6.856;2023-02-15T10:35:38;19.87;;;14.00;;
3712;SDS011;1872;51.406;6.856;2023-02-15T10:38:40;22.73;;;15.10;;
3712;SDS011;1872;51.406;6.856;2023-02-15T10:41:17;18.07;;;13.47;;
3712;SDS011;1872;51.406;6.856;2023-02-15T10:54:25;21.60;;;14.00;;
3712;SDS011;1872;51.406;6.856;2023-02-15T10:57:46;22.90;;;14.20;;
3712;SDS011;1872;51.406;6.856;2023-02-15T11:00:14;21.60;;;12.93;;
3712;SDS011;1872;51.406;6.856;2023-02-15T11:03:00;21.40;;;14.37;;
3712;SDS011;1872;51.406;6.856;2023-02-15T11:08:27;20.63;;;15.30;;
3712;SDS011;1872;51.406;6.856;2023-02-15T11:10:58;21.77;;;13.80;;
3712;SDS011;1872;51.406;6.856;2023-02-15T11:13:27;22.57;;;14.87;;
3712;SDS011;1872;51.406;6.856;2023-02-15T11:16:10;21.57;;;14.20;;
3712;SDS011;1872;51.406;6.856;2023-02-15T11:23:54;23.13;;;15.50;;
3712;SDS011;1872;51.406;6.856;2023-02-15T11:26:31;20.60;;;13.70;;
3712;SDS011;1872;51.406;6.856;2023-02-15T11:31:46;21.80;;;13.20;;
3712;SDS011;1872;51.406;6.856;2023-02-15T11:34:27;23.20;;;14.60;;
3712;SDS011;1872;51.406;6.856;2023-02-15T11:37:16;21.53;;;13.90;;
3712;SDS011;1872;51.406;6.856;2023-02-15T11:39:45;20.87;;;14.13;;
3712;SDS011;1872;51.406;6.856;2023-02-15T11:42:17;21.37;;;14.37;;
3712;SDS011;1872;51.406;6.856;2023-02-15T11:47:37;22.47;;;15.57;;
3712;SDS011;1872;51.406;6.856;2023-02-15T11:50:02;20.63;;;14.17;;
3712;SDS011;1872;51.406;6.856;2023-02-15T11:52:28;17.60;;;13.13;;
3712;SDS011;1872;51.406;6.856;2023-02-15T11:54:54;21.90;;;14.40;;
3712;SDS011;1872;51.406;6.856;2023-02-15T11:57:25;22.23;;;14.27;;
3712;SDS011;1872;51.406;6.856;2023-02-15T12:00:02;19.83;;;13.77;;
3712;SDS011;1872;51.406;6.856;2023-02-15T12:02:44;16.83;;;12.83;;
3712;SDS011;1872;51.406;6.856;2023-02-15T12:05:17;20.83;;;14.53;;
3712;SDS011;1872;51.406;6.856;2023-02-15T12:07:49;18.50;;;14.37;;
3712;SDS011;1872;51.406;6.856;2023-02-15T12:10:29;21.50;;;15.23;;
3712;SDS011;1872;51.406;6.856;2023-02-15T12:13:09;20.33;;;13.07;;
3712;SDS011;1872;51.406;6.856;2023-02-15T12:15:35;21.40;;;13.57;;
3712;SDS011;1872;51.406;6.856;2023-02-15T12:18:01;16.53;;;12.70;;
3712;SDS011;1872;51.406;6.856;2023-02-15T12:20:31;21.27;;;13.67;;
3712;SDS011;1872;51.406;6.856;2023-02-15T12:23:03;23.50;;;15.10;;
3712;SDS011;1872;51.406;6.856;2023-02-15T12:34:09;23.43;;;15.10;;
3712;SDS011;1872;51.406;6.856;2023-02-15T12:36:49;17.40;;;14.10;;
3712;SDS011;1872;51.406;6.856;2023-02-15T12:39:24;19.93;;;14.50;;
3712;SDS011;1872;51.406;6.856;2023-02-15T12:44:27;17.77;;;12.90;;
3712;SDS011;1872;51.406;6.856;2023-02-15T12:49:35;20.37;;;13.43;;
3712;SDS011;1872;51.406;6.856;2023-02-15T12:52:04;19.00;;;13.10;;
3712;SDS011;1872;51.406;6.856;2023-02-15T12:54:45;18.73;;;13.40;;
3712;SDS011;1872;51.406;6.856;2023-02-15T12:57:33;17.50;;;12.47;;
3712;SDS011;1872;51.406;6.856;2023-02-15T12:59:59;18.60;;;13.83;;
3712;SDS011;1872;51.406;6.856;2023-02-15T13:07:57;22.83;;;13.10;;
3712;SDS011;1872;51.406;6.856;2023-02-15T13:10:27;21.43;;;13.37;;
3712;SDS011;1872;51.406;6.856;2023-02-15T13:13:04;19.20;;;12.37;;
3712;SDS011;1872;51.406;6.856;2023-02-15T13:15:36;19.07;;;13.80;;
3712;SDS011;1872;51.406;6.856;2023-02-15T13:18:05;17.23;;;13.30;;
3712;SDS011;1872;51.406;6.856;2023-02-15T13:20:40;18.63;;;12.20;;
3712;SDS011;1872;51.406;6.856;2023-02-15T13:23:32;18.30;;;12.70;;
3712;SDS011;1872;51.406;6.856;2023-02-15T13:25:57;17.45;;;12.07;;
3712;SDS011;1872;51.406;6.856;2023-02-15T13:28:42;17.50;;;12.53;;
3712;SDS011;1872;51.406;6.856;2023-02-15T13:31:21;17.63;;;12.10;;
3712;SDS011;1872;51.406;6.856;2023-02-15T13:33:58;18.83;;;13.10;;
3712;SDS011;1872;51.406;6.856;2023-02-15T13:36:38;18.20;;;12.33;;
3712;SDS011;1872;51.406;6.856;2023-02-15T13:49:31;18.70;;;12.30;;
3712;SDS011;1872;51.406;6.856;2023-02-15T13:52:23;18.90;;;13.03;;
3712;SDS011;1872;51.406;6.856;2023-02-15T14:09:14;17.07;;;11.57;;
3712;SDS011;1872;51.406;6.856;2023-02-15T14:17:15;17.90;;;11.50;;
3712;SDS011;1872;51.406;6.856;2023-02-15T14:19:45;21.50;;;13.20;;
3712;SDS011;1872;51.406;6.856;2023-02-15T14:27:53;14.97;;;11.50;;
3712;SDS011;1872;51.406;6.856;2023-02-15T14:30:34;16.63;;;11.57;;
3712;SDS011;1872;51.406;6.856;2023-02-15T14:33:21;18.27;;;11.87;;
3712;SDS011;1872;51.406;6.856;2023-02-15T14:35:50;20.77;;;11.73;;
3712;SDS011;1872;51.406;6.856;2023-02-15T14:41:09;19.17;;;12.93;;
3712;SDS011;1872;51.406;6.856;2023-02-15T14:43:45;16.40;;;11.37;;
3712;SDS011;1872;51.406;6.856;2023-02-15T14:48:52;14.63;;;10.83;;
3712;SDS011;1872;51.406;6.856;2023-02-15T14:54:10;18.00;;;10.93;;
3712;SDS011;1872;51.406;6.856;2023-02-15T14:59:36;18.87;;;11.20;;
3712;SDS011;1872;51.406;6.856;2023-02-15T15:04:33;18.43;;;11.60;;
3712;SDS011;1872;51.406;6.856;2023-02-15T15:12:41;20.63;;;11.77;;
3712;SDS011;1872;51.406;6.856;2023-02-15T15:15:13;17.30;;;12.63;;
3712;SDS011;1872;51.406;6.856;2023-02-15T15:18:04;18.73;;;11.33;;
3712;SDS011;1872;51.406;6.856;2023-02-15T15:20:50;18.20;;;11.40;;
3712;SDS011;1872;51.406;6.856;2023-02-15T15:25:46;17.87;;;11.50;;
3712;SDS011;1872;51.406;6.856;2023-02-15T15:34:00;18.40;;;11.67;;
3712;SDS011;1872;51.406;6.856;2023-02-15T15:47:28;16.50;;;11.47;;
3712;SDS011;1872;51.406;6.856;2023-02-15T15:50:15;17.07;;;12.03;;
3712;SDS011;1872;51.406;6.856;2023-02-15T15:52:45;19.50;;;12.53;;
3712;SDS011;1872;51.406;6.856;2023-02-15T15:55:18;18.10;;;11.33;;
3712;SDS011;1872;51.406;6.856;2023-02-15T15:57:47;17.70;;;11.30;;
3712;SDS011;1872;51.406;6.856;2023-02-15T16:00:25;17.90;;;10.23;;
3712;SDS011;1872;51.406;6.856;2023-02-15T16:02:56;16.50;;;12.00;;
3712;SDS011;1872;51.406;6.856;2023-02-15T16:05:22;19.27;;;12.43;;
3712;SDS011;1872;51.406;6.856;2023-02-15T16:07:50;16.93;;;10.43;;
3712;SDS011;1872;51.406;6.856;2023-02-15T16:10:26;17.50;;;13.00;;
3712;SDS011;1872;51.406;6.856;2023-02-15T16:12:54;15.80;;;11.67;;
3712;SDS011;1872;51.406;6.856;2023-02-15T16:15:22;15.87;;;11.70;;
3712;SDS011;1872;51.406;6.856;2023-02-15T16:17:56;16.10;;;10.30;;
3712;SDS011;1872;51.406;6.856;2023-02-15T16:20:24;18.23;;;11.70;;
3712;SDS011;1872;51.406;6.856;2023-02-15T16:26:06;17.63;;;11.80;;
3712;SDS011;1872;51.406;6.856;2023-02-15T16:28:34;16.23;;;11.17;;
3712;SDS011;1872;51.406;6.856;2023-02-15T16:31:11;16.53;;;10.53;;
3712;SDS011;1872;51.406;6.856;2023-02-15T16:33:40;15.90;;;12.50;;
3712;SDS011;1872;51.406;6.856;2023-02-15T16:36:11;19.60;;;12.60;;
3712;SDS011;1872;51.406;6.856;2023-02-15T16:41:27;22.40;;;14.60;;
3712;SDS011;1872;51.406;6.856;2023-02-15T16:43:55;21.03;;;14.40;;
3712;SDS011;1872;51.406;6.856;2023-02-15T16:46:26;24.10;;;16.50;;
3712;SDS011;1872;51.406;6.856;2023-02-15T16:48:57;28.40;;;18.63;;
3712;SDS011;1872;51.406;6.856;2023-02-15T16:51:27;32.23;;;19.20;;
3712;SDS011;1872;51.406;6.856;2023-02-15T16:53:55;35.13;;;21.37;;
3712;SDS011;1872;51.406;6.856;2023-02-15T16:56:24;27.93;;;17.10;;
3712;SDS011;1872;51.406;6.856;2023-02-15T16:58:55;21.63;;;14.70;;
3712;SDS011;1872;51.406;6.856;2023-02-15T17:01:26;21.63;;;14.10;;
3712;SDS011;1872;51.406;6.856;2023-02-15T17:04:13;19.20;;;12.30;;
3712;SDS011;1872;51.406;6.856;2023-02-15T17:09:52;17.80;;;12.53;;
3712;SDS011;1872;51.406;6.856;2023-02-15T17:15:27;18.43;;;13.27;;
3712;SDS011;1872;51.406;6.856;2023-02-15T17:18:00;18.30;;;12.53;;
3712;SDS011;1872;51.406;6.856;2023-02-15T17:20:31;16.07;;;11.87;;
3712;SDS011;1872;51.406;6.856;2023-02-15T17:22:59;19.40;;;13.80;;
3712;SDS011;1872;51.406;6.856;2023-02-15T17:25:33;19.50;;;13.80;;
3712;SDS011;1872;51.406;6.856;2023-02-15T17:28:02;16.67;;;12.27;;
3712;SDS011;1872;51.406;6.856;2023-02-15T17:30:33;20.00;;;13.50;;
3712;SDS011;1872;51.406;6.856;2023-02-15T17:33:03;17.60;;;13.50;;
3712;SDS011;1872;51.406;6.856;2023-02-15T17:35:43;18.50;;;12.90;;
3712;SDS011;1872;51.406;6.856;2023-02-15T17:38:17;18.87;;;13.63;;
3712;SDS011;1872;51.406;6.856;2023-02-15T17:40:44;16.20;;;12.53;;
3712;SDS011;1872;51.406;6.856;2023-02-15T17:43:10;19.17;;;13.40;;
3712;SDS011;1872;51.406;6.856;2023-02-15T17:45:40;21.13;;;14.50;;
3712;SDS011;1872;51.406;6.856;2023-02-15T17:48:20;17.10;;;13.57;;
3712;SDS011;1872;51.406;6.856;2023-02-15T17:50:56;18.10;;;13.13;;
3712;SDS011;1872;51.406;6.856;2023-02-15T17:53:22;17.77;;;13.77;;
3712;SDS011;1872;51.406;6.856;2023-02-15T17:55:50;18.70;;;13.60;;
3712;SDS011;1872;51.406;6.856;2023-02-15T17:58:16;21.00;;;13.63;;
3712;SDS011;1872;51.406;6.856;2023-02-15T18:00:56;19.17;;;13.47;;
3712;SDS011;1872;51.406;6.856;2023-02-15T18:03:44;18.53;;;13.50;;
3712;SDS011;1872;51.406;6.856;2023-02-15T18:06:33;17.70;;;14.20;;
3712;SDS011;1872;51.406;6.856;2023-02-15T18:09:20;18.90;;;14.57;;
3712;SDS011;1872;51.406;6.856;2023-02-15T18:12:14;19.13;;;12.67;;
3712;SDS011;1872;51.406;6.856;2023-02-15T18:14:45;20.73;;;14.37;;
3712;SDS011;1872;51.406;6.856;2023-02-15T18:17:11;22.37;;;14.60;;
3712;SDS011;1872;51.406;6.856;2023-02-15T18:19:42;18.53;;;13.73;;
3712;SDS011;1872;51.406;6.856;2023-02-15T18:22:12;16.57;;;12.87;;
3712;SDS011;1872;51.406;6.856;2023-02-15T18:24:43;19.70;;;13.57;;
3712;SDS011;1872;51.406;6.856;2023-02-15T18:27:10;24.50;;;15.20;;
3712;SDS011;1872;51.406;6.856;2023-02-15T18:29:39;19.47;;;13.83;;
3712;SDS011;1872;51.406;6.856;2023-02-15T18:32:14;18.53;;;13.20;;
3712;SDS011;1872;51.406;6.856;2023-02-15T18:34:48;19.63;;;12.63;;
3712;SDS011;1872;51.406;6.856;2023-02-15T18:37:24;20.50;;;13.90;;